Time;durP1;ratioP1;P1;durP2;ratioP2;P2;SDS_P1;SDS_P2;PMS_P1;PMS_P2;Temp;Humidity;BMP_temperature;BMP_pressure;BME280_temperature;BME280_humidity;BME280_pressure;Samples;Min_cycle;Max_cycle;Signal;HPM_P1;HPM_P2
2022/11/27 00:01:32;;;;;;;8.27;5.10;;;17.60;60.00;;;;;;5051509;28;20179;-60
2022/11/27 00:03:57;;;;;;;8.32;4.90;;;17.50;60.00;;;;;;5050874;28;20179;-60
2022/11/27 00:06:24;;;;;;;6.57;4.70;;;17.60;60.90;;;;;;5052051;28;20197;-60
2022/11/27 00:08:50;;;;;;;8.88;4.82;;;17.50;60.10;;;;;;5051378;28;20622;-60
2022/11/27 00:11:18;;;;;;;7.40;4.75;;;17.50;60.10;;;;;;5051394;28;20175;-60
2022/11/27 00:13:44;;;;;;;7.63;5.25;;;17.50;60.20;;;;;;5051249;28;20305;-60
2022/11/27 00:16:11;;;;;;;6.88;4.45;;;17.40;60.10;;;;;;5050382;28;20199;-60
2022/11/27 00:18:37;;;;;;;7.15;5.00;;;17.50;60.20;;;;;;5050379;28;20182;-60
2022/11/27 00:21:06;;;;;;;7.40;4.38;;;17.40;60.10;;;;;;5051887;28;20179;-60
2022/11/27 00:23:32;;;;;;;5.88;4.50;;;17.40;60.10;;;;;;5051001;28;20171;-60
2022/11/27 00:25:57;;;;;;;8.93;5.18;;;17.40;60.20;;;;;;5051638;28;20179;-59
2022/11/27 00:28:23;;;;;;;9.95;5.05;;;17.30;60.10;;;;;;5051444;28;20218;-60
2022/11/27 00:30:49;;;;;;;10.32;5.20;;;17.40;60.10;;;;;;5050477;28;20179;-59
2022/11/27 00:33:14;;;;;;;6.63;4.30;;;17.30;60.10;;;;;;5051105;28;20175;-60
2022/11/27 00:35:40;;;;;;;5.45;4.13;;;17.30;60.10;;;;;;5051020;28;20187;-60
2022/11/27 00:38:05;;;;;;;6.15;4.50;;;17.30;60.20;;;;;;5050842;28;20179;-60
2022/11/27 00:40:31;;;;;;;7.50;4.57;;;17.30;60.10;;;;;;5053820;28;20194;-60
2022/11/27 00:42:56;;;;;;;7.20;4.68;;;17.30;60.20;;;;;;5055436;28;20587;-60
2022/11/27 00:45:22;;;;;;;6.43;4.65;;;17.30;60.20;;;;;;5053715;28;20637;-60
2022/11/27 00:47:47;;;;;;;6.68;4.05;;;17.30;60.20;;;;;;5054392;28;20632;-60
2022/11/27 00:50:13;;;;;;;7.20;4.40;;;17.30;60.20;;;;;;5054586;28;20262;-59
2022/11/27 00:52:38;;;;;;;7.38;4.30;;;17.20;60.20;;;;;;5054001;28;20179;-60
2022/11/27 00:55:04;;;;;;;6.50;4.53;;;17.20;60.20;;;;;;5054728;28;20195;-59
2022/11/27 00:57:30;;;;;;;7.63;4.97;;;17.20;60.20;;;;;;5054615;28;20269;-60
2022/11/27 00:59:56;;;;;;;5.70;4.00;;;17.20;60.20;;;;;;5053821;28;20279;-60
2022/11/27 01:02:21;;;;;;;6.05;4.00;;;17.20;60.20;;;;;;5054578;28;20179;-60
2022/11/27 01:04:47;;;;;;;5.70;4.22;;;17.20;60.30;;;;;;5054177;28;20662;-60
2022/11/27 01:07:13;;;;;;;7.55;4.18;;;17.20;60.30;;;;;;5054131;28;20218;-60
2022/11/27 01:09:38;;;;;;;7.93;4.25;;;17.10;61.00;;;;;;5054331;28;20631;-60
2022/11/27 01:12:04;;;;;;;6.07;3.90;;;17.10;60.20;;;;;;5054924;28;20634;-60
2022/11/27 01:14:30;;;;;;;6.05;4.50;;;17.20;60.30;;;;;;5052606;28;20197;-61
2022/11/27 01:16:55;;;;;;;4.32;3.75;;;17.10;60.30;;;;;;5053321;28;20677;-60
2022/11/27 01:19:21;;;;;;;5.35;3.65;;;17.10;60.30;;;;;;5054340;28;20481;-60
2022/11/27 01:21:46;;;;;;;7.80;4.88;;;17.10;60.30;;;;;;5053421;28;20695;-60
2022/11/27 01:24:13;;;;;;;7.35;4.40;;;17.00;60.20;;;;;;5054452;28;20183;-59
2022/11/27 01:26:39;;;;;;;6.43;3.80;;;17.10;60.30;;;;;;5054067;28;20259;-60
2022/11/27 01:29:04;;;;;;;5.88;4.90;;;17.00;60.20;;;;;;5053658;28;20625;-59
2022/11/27 01:31:31;;;;;;;6.05;3.88;;;17.10;60.30;;;;;;5054385;28;20167;-59
2022/11/27 01:34:01;;;;;;;6.60;4.57;;;17.00;61.00;;;;;;5054549;28;20270;-60
2022/11/27 01:36:27;;;;;;;6.78;4.35;;;17.00;60.20;;;;;;5054525;28;20172;-60
2022/11/27 01:38:53;;;;;;;6.03;4.03;;;17.00;60.30;;;;;;5054040;28;20740;-60
2022/11/27 01:41:20;;;;;;;8.52;3.95;;;17.00;60.20;;;;;;5053626;28;20655;-61
2022/11/27 01:44:01;;;;;;;5.72;4.07;;;17.00;60.30;;;;;;5053794;28;20179;-59
2022/11/27 01:46:37;;;;;;;6.05;4.03;;;17.00;60.30;;;;;;5054151;28;20264;-60
2022/11/27 01:49:09;;;;;;;5.22;3.80;;;17.00;60.30;;;;;;5052088;28;20198;-59
2022/11/27 01:51:53;;;;;;;6.20;3.88;;;16.90;60.20;;;;;;5052856;28;20179;-60
2022/11/27 01:54:20;;;;;;;4.25;3.55;;;16.90;60.20;;;;;;5052365;28;20259;-57
2022/11/27 01:56:47;;;;;;;6.30;4.20;;;16.90;60.30;;;;;;5051170;28;20183;-57
2022/11/27 01:59:12;;;;;;;5.50;3.47;;;16.90;60.30;;;;;;5052534;28;20638;-59
2022/11/27 02:01:38;;;;;;;5.93;4.03;;;16.90;60.20;;;;;;5053058;28;20187;-60
2022/11/27 02:04:03;;;;;;;6.35;3.55;;;16.90;60.20;;;;;;5053002;28;20175;-59
2022/11/27 02:06:29;;;;;;;4.50;3.55;;;16.90;60.10;;;;;;5053612;28;20179;-60
2022/11/27 02:08:55;;;;;;;5.22;3.92;;;16.90;60.20;;;;;;5052822;28;20606;-60
2022/11/27 02:11:26;;;;;;;4.25;3.05;;;16.90;60.30;;;;;;5051920;28;20617;-60
2022/11/27 02:14:17;;;;;;;4.93;3.70;;;16.90;60.20;;;;;;5052939;28;20210;-60
2022/11/27 02:16:47;;;;;;;4.65;3.47;;;16.80;60.20;;;;;;5050772;28;20217;-60
2022/11/27 02:19:21;;;;;;;5.50;3.80;;;16.90;60.20;;;;;;5036179;28;20570;-60
2022/11/27 02:21:47;;;;;;;4.53;3.47;;;16.80;60.10;;;;;;5053349;28;20167;-60
2022/11/27 02:24:37;;;;;;;7.30;4.35;;;16.80;60.20;;;;;;5052626;28;20602;-59
2022/11/27 02:27:23;;;;;;;4.13;3.38;;;16.80;60.90;;;;;;5036906;28;20245;-58
2022/11/27 02:29:49;;;;;;;4.78;3.55;;;16.70;60.10;;;;;;5053236;28;20591;-59
2022/11/27 02:32:19;;;;;;;4.55;3.47;;;16.80;60.30;;;;;;5051428;28;20632;-60
2022/11/27 02:34:44;;;;;;;5.03;3.67;;;16.70;60.10;;;;;;5035415;28;20182;-60
2022/11/27 02:37:12;;;;;;;6.47;3.50;;;16.80;60.10;;;;;;5052673;28;20175;-60
2022/11/27 02:39:41;;;;;;;3.60;3.30;;;16.70;60.10;;;;;;5052943;28;20580;-60
2022/11/27 02:42:12;;;;;;;5.20;3.03;;;16.70;60.10;;;;;;5051319;28;20179;-60
2022/11/27 02:44:42;;;;;;;5.05;3.47;;;16.70;60.10;;;;;;5051140;28;20198;-60
2022/11/27 02:47:08;;;;;;;5.10;3.17;;;16.70;60.10;;;;;;5051632;28;20340;-60
2022/11/27 02:49:33;;;;;;;4.93;3.35;;;16.70;60.10;;;;;;5051061;28;20677;-60
2022/11/27 02:51:59;;;;;;;4.50;3.53;;;16.70;60.80;;;;;;5050737;28;20222;-59
2022/11/27 02:54:27;;;;;;;4.18;3.50;;;16.70;60.10;;;;;;5051197;28;20338;-60
2022/11/27 02:56:53;;;;;;;4.35;3.47;;;16.70;60.10;;;;;;5050676;28;20240;-57
2022/11/27 02:59:19;;;;;;;5.07;3.30;;;16.70;60.00;;;;;;5032325;28;20183;-60
2022/11/27 03:01:47;;;;;;;4.80;3.45;;;16.70;60.00;;;;;;5037975;28;20179;-59
2022/11/27 03:04:16;;;;;;;4.80;3.45;;;16.60;60.00;;;;;;5050315;28;20656;-60
2022/11/27 03:06:44;;;;;;;4.40;2.95;;;16.60;60.00;;;;;;5050035;28;20183;-60
2022/11/27 03:09:18;;;;;;;3.72;3.28;;;16.60;60.00;;;;;;5051461;28;20227;-60
2022/11/27 03:11:43;;;;;;;5.82;3.67;;;16.60;59.90;;;;;;5049665;28;20973;-59
2022/11/27 03:14:09;;;;;;;4.03;3.08;;;16.60;59.90;;;;;;5050490;28;20221;-59
2022/11/27 03:16:50;;;;;;;5.60;3.05;;;16.60;59.90;;;;;;5052141;28;20215;-61
2022/11/27 03:19:20;;;;;;;6.25;3.55;;;16.60;59.90;;;;;;5049523;28;20193;-60
2022/11/27 03:21:49;;;;;;;3.53;3.20;;;16.60;59.90;;;;;;5050120;28;20229;-59
2022/11/27 03:24:14;;;;;;;3.65;3.30;;;16.60;59.90;;;;;;5051110;28;20198;-59
2022/11/27 03:26:40;;;;;;;4.35;3.10;;;16.60;60.00;;;;;;5051442;28;20166;-59
2022/11/27 03:29:08;;;;;;;5.22;3.45;;;16.50;60.80;;;;;;5052238;28;20187;-58
2022/11/27 03:31:34;;;;;;;4.97;3.33;;;16.50;59.90;;;;;;5034154;28;20181;-59
2022/11/27 03:33:59;;;;;;;3.60;3.30;;;16.50;59.90;;;;;;5051531;28;20262;-60
2022/11/27 03:36:25;;;;;;;3.47;2.83;;;16.50;59.80;;;;;;5052142;28;20263;-60
2022/11/27 03:38:50;;;;;;;5.07;3.30;;;16.50;59.90;;;;;;5051769;28;20637;-60
2022/11/27 03:41:25;;;;;;;5.15;3.45;;;16.50;59.90;;;;;;5050254;28;20175;-59
2022/11/27 03:44:05;;;;;;;3.42;3.13;;;16.50;59.90;;;;;;5051856;28;20624;-59
2022/11/27 03:46:54;;;;;;;4.60;3.05;;;16.50;59.90;;;;;;5050461;28;20266;-59
2022/11/27 03:49:24;;;;;;;4.32;2.90;;;16.50;59.90;;;;;;5051450;28;20187;-59
2022/11/27 03:51:55;;;;;;;4.07;2.72;;;16.50;59.90;;;;;;5050525;28;20175;-59
2022/11/27 03:54:30;;;;;;;3.85;3.40;;;16.50;59.90;;;;;;5050676;28;20226;-59
2022/11/27 03:57:02;;;;;;;3.42;2.90;;;16.40;59.80;;;;;;5050964;28;20674;-60
2022/11/27 03:59:30;;;;;;;4.70;2.95;;;16.50;59.90;;;;;;5033699;28;20182;-60
2022/11/27 04:01:55;;;;;;;5.05;3.20;;;16.50;59.80;;;;;;5032626;28;20660;-60
2022/11/27 04:04:21;;;;;;;3.75;2.47;;;16.50;59.70;;;;;;5051501;28;20205;-59
2022/11/27 04:06:46;;;;;;;4.43;3.55;;;16.50;59.80;;;;;;5051418;28;20286;-60
2022/11/27 04:09:12;;;;;;;5.75;3.13;;;16.40;59.70;;;;;;5050827;28;20263;-60
2022/11/27 04:11:37;;;;;;;4.90;3.42;;;16.40;59.80;;;;;;5051699;28;20637;-59
2022/11/27 04:14:03;;;;;;;3.35;2.92;;;16.40;59.70;;;;;;5052150;28;20262;-60
2022/11/27 04:16:28;;;;;;;3.95;2.97;;;16.40;59.80;;;;;;5054347;28;20318;-60
2022/11/27 04:18:54;;;;;;;5.47;3.10;;;16.40;59.80;;;;;;5055416;28;20191;-59
2022/11/27 04:21:19;;;;;;;3.10;2.60;;;16.40;59.70;;;;;;5055005;28;20614;-60
2022/11/27 04:23:45;;;;;;;3.83;2.92;;;16.40;59.70;;;;;;5054375;28;20561;-59
2022/11/27 04:26:11;;;;;;;3.38;2.67;;;16.40;59.70;;;;;;5055031;28;20171;-59
2022/11/27 04:28:36;;;;;;;3.20;2.90;;;16.40;59.80;;;;;;5054796;28;20209;-60
2022/11/27 04:31:02;;;;;;;3.03;2.75;;;16.40;59.70;;;;;;5053484;28;20514;-58
2022/11/27 04:33:27;;;;;;;4.10;2.78;;;16.40;59.60;;;;;;5054469;28;20225;-60
2022/11/27 04:35:53;;;;;;;3.05;2.72;;;16.30;59.70;;;;;;5053470;28;20491;-59
2022/11/27 04:38:19;;;;;;;3.03;2.63;;;16.40;59.70;;;;;;5053333;28;20517;-59
2022/11/27 04:40:44;;;;;;;4.20;2.92;;;16.30;59.60;;;;;;5053225;28;20174;-58
2022/11/27 04:43:10;;;;;;;3.47;3.00;;;16.30;59.60;;;;;;5053241;28;20179;-59
2022/11/27 04:45:36;;;;;;;3.85;2.72;;;16.30;60.30;;;;;;5052286;28;20175;-57
2022/11/27 04:48:02;;;;;;;3.40;2.47;;;16.30;59.60;;;;;;5053513;28;20268;-57
2022/11/27 04:50:27;;;;;;;4.03;2.90;;;16.30;59.60;;;;;;5053762;28;20262;-59
2022/11/27 04:52:53;;;;;;;3.40;2.95;;;16.30;59.60;;;;;;5052486;28;20183;-57
2022/11/27 04:55:18;;;;;;;2.92;2.60;;;16.30;59.60;;;;;;5053964;28;20182;-59
2022/11/27 04:57:44;;;;;;;4.07;2.63;;;16.30;59.70;;;;;;5052050;28;20175;-57
2022/11/27 05:00:10;;;;;;;3.63;2.67;;;16.30;59.70;;;;;;5053359;28;20171;-56
2022/11/27 05:02:35;;;;;;;3.10;2.55;;;16.30;59.70;;;;;;5053461;28;20190;-57
2022/11/27 05:05:01;;;;;;;4.43;2.70;;;16.20;59.70;;;;;;5052767;28;20170;-59
2022/11/27 05:07:26;;;;;;;3.60;2.88;;;16.30;59.70;;;;;;5053489;28;20218;-59
2022/11/27 05:09:52;;;;;;;2.65;2.35;;;16.30;59.80;;;;;;5052820;28;20168;-59
2022/11/27 05:12:17;;;;;;;3.08;2.72;;;16.30;59.80;;;;;;5052645;28;20227;-57
2022/11/27 05:14:43;;;;;;;3.83;2.45;;;16.20;59.70;;;;;;5053437;28;20271;-59
2022/11/27 05:17:08;;;;;;;2.90;2.70;;;16.20;60.00;;;;;;5053295;28;20301;-58
2022/11/27 05:19:34;;;;;;;3.38;2.33;;;16.20;59.60;;;;;;5051771;28;20167;-58
2022/11/27 05:21:59;;;;;;;3.67;2.90;;;16.20;59.70;;;;;;5053106;28;20171;-57
2022/11/27 05:24:26;;;;;;;3.45;2.60;;;16.20;59.70;;;;;;5053089;28;20319;-58
2022/11/27 05:26:51;;;;;;;3.25;2.38;;;16.20;59.70;;;;;;5050744;28;20203;-58
2022/11/27 05:29:17;;;;;;;3.85;2.70;;;16.20;59.70;;;;;;5052901;28;20175;-59
2022/11/27 05:31:42;;;;;;;3.38;2.85;;;16.20;59.80;;;;;;5052516;28;20630;-59
2022/11/27 05:34:08;;;;;;;4.15;2.50;;;16.20;59.70;;;;;;5051310;28;20186;-58
2022/11/27 05:36:34;;;;;;;4.25;2.65;;;16.20;59.70;;;;;;5053181;28;20186;-59
2022/11/27 05:39:00;;;;;;;3.55;2.75;;;16.20;59.80;;;;;;5054429;28;20174;-59
2022/11/27 05:41:25;;;;;;;2.95;2.33;;;16.20;59.80;;;;;;5053280;28;20171;-59
2022/11/27 05:43:51;;;;;;;3.28;2.55;;;16.20;59.80;;;;;;5065840;28;20536;-58
2022/11/27 05:46:18;;;;;;;3.40;2.42;;;16.20;59.80;;;;;;5073781;28;20755;-58
2022/11/27 05:48:44;;;;;;;4.53;2.67;;;16.20;59.80;;;;;;5071330;28;20222;-58
2022/11/27 05:51:09;;;;;;;3.95;2.83;;;16.20;59.80;;;;;;5073890;28;20244;-58
2022/11/27 05:53:35;;;;;;;3.25;2.92;;;16.20;59.80;;;;;;5058025;28;20181;-59
2022/11/27 05:56:08;;;;;;;2.60;2.40;;;16.10;59.70;;;;;;5051072;28;20645;-57
2022/11/27 05:58:34;;;;;;;3.45;2.55;;;16.10;59.80;;;;;;5050935;28;20730;-59
2022/11/27 06:00:59;;;;;;;4.13;3.03;;;16.10;59.80;;;;;;5052607;28;20172;-59
2022/11/27 06:03:25;;;;;;;2.72;2.40;;;16.10;59.90;;;;;;5051824;28;20262;-60
2022/11/27 06:05:50;;;;;;;3.75;2.20;;;16.10;59.80;;;;;;5052026;28;20242;-58
2022/11/27 06:08:16;;;;;;;3.25;2.70;;;16.10;59.80;;;;;;5050370;28;20207;-59
2022/11/27 06:10:42;;;;;;;3.67;2.58;;;16.10;59.90;;;;;;5051568;28;20206;-59
2022/11/27 06:13:07;;;;;;;3.15;2.25;;;16.10;59.90;;;;;;5052437;28;20171;-58
2022/11/27 06:15:33;;;;;;;2.45;2.25;;;16.10;59.80;;;;;;5051037;28;20203;-58
2022/11/27 06:17:58;;;;;;;3.95;2.28;;;16.10;59.80;;;;;;5050436;28;20746;-58
2022/11/27 06:20:24;;;;;;;2.63;2.30;;;16.10;59.80;;;;;;5051771;28;20573;-59
2022/11/27 06:22:49;;;;;;;2.55;2.35;;;16.10;59.80;;;;;;5051038;28;20650;-57
2022/11/27 06:25:15;;;;;;;3.15;2.20;;;16.10;59.90;;;;;;5051899;28;20235;-60
2022/11/27 06:27:41;;;;;;;2.50;2.28;;;16.00;59.80;;;;;;5051500;28;20203;-58
2022/11/27 06:30:07;;;;;;;3.28;2.28;;;16.10;59.90;;;;;;5051002;28;20309;-58
2022/11/27 06:32:32;;;;;;;3.35;2.20;;;16.10;59.90;;;;;;5051634;28;20189;-59
2022/11/27 06:34:58;;;;;;;3.92;2.60;;;16.10;59.90;;;;;;5051761;28;20554;-59
2022/11/27 06:37:23;;;;;;;2.63;2.40;;;16.00;59.80;;;;;;5050485;28;20646;-59
2022/11/27 06:39:49;;;;;;;2.40;2.20;;;16.00;59.80;;;;;;5051443;28;20258;-59
2022/11/27 06:42:14;;;;;;;2.10;1.90;;;16.00;59.80;;;;;;5051479;28;20221;-58
2022/11/27 06:44:40;;;;;;;3.60;2.40;;;16.00;59.80;;;;;;5050522;28;20175;-59
2022/11/27 06:47:06;;;;;;;3.17;2.22;;;16.00;59.90;;;;;;5051215;28;20199;-57
2022/11/27 06:49:31;;;;;;;2.88;2.60;;;16.00;59.80;;;;;;5051513;28;20187;-59
2022/11/27 06:51:57;;;;;;;2.55;2.20;;;16.00;59.80;;;;;;5050629;28;20198;-58
2022/11/27 06:54:22;;;;;;;2.88;2.17;;;16.00;59.80;;;;;;5051700;28;20182;-59
2022/11/27 06:56:48;;;;;;;2.30;2.08;;;16.00;59.80;;;;;;5051348;28;20194;-58
2022/11/27 06:59:14;;;;;;;2.45;2.15;;;16.00;59.80;;;;;;5051062;28;20187;-58
2022/11/27 07:01:40;;;;;;;2.88;2.47;;;16.00;59.80;;;;;;5051083;28;20171;-59
2022/11/27 07:04:07;;;;;;;2.75;2.53;;;16.00;59.80;;;;;;5051607;28;20179;-58
2022/11/27 07:06:33;;;;;;;3.90;2.72;;;16.00;59.90;;;;;;5048715;28;20657;-59
2022/11/27 07:08:58;;;;;;;2.80;2.35;;;16.00;59.90;;;;;;5050847;28;20253;-57
2022/11/27 07:11:25;;;;;;;2.60;2.13;;;16.00;59.80;;;;;;5050575;28;20202;-59
2022/11/27 07:13:52;;;;;;;2.53;2.33;;;16.00;59.80;;;;;;5050842;28;20203;-58
2022/11/27 07:16:18;;;;;;;3.13;2.00;;;16.10;59.80;;;;;;5051052;28;20657;-58
2022/11/27 07:18:48;;;;;;;2.30;1.95;;;16.20;59.70;;;;;;5050219;28;20179;-59
2022/11/27 07:21:14;;;;;;;2.97;1.90;;;16.30;59.80;;;;;;5050916;28;20248;-59
2022/11/27 07:23:39;;;;;;;2.58;1.95;;;16.40;59.60;;;;;;5050827;28;20633;-57
2022/11/27 07:26:09;;;;;;;2.40;2.20;;;16.60;59.40;;;;;;5050200;28;20732;-58
2022/11/27 07:28:35;;;;;;;2.40;1.80;;;16.70;59.20;;;;;;5050344;28;20671;-57
2022/11/27 07:31:00;;;;;;;2.88;2.50;;;16.80;58.90;;;;;;5051044;28;20207;-58
2022/11/27 07:33:26;;;;;;;2.00;1.90;;;17.00;58.80;;;;;;5049970;28;20175;-58
2022/11/27 07:35:59;;;;;;;2.10;1.90;;;17.10;58.50;;;;;;5050745;28;20258;-57
2022/11/27 07:38:25;;;;;;;2.72;2.42;;;17.30;58.20;;;;;;5050973;28;20190;-59
2022/11/27 07:40:50;;;;;;;3.42;2.05;;;17.50;57.80;;;;;;5049488;28;20236;-58
2022/11/27 07:43:16;;;;;;;2.63;2.10;;;17.60;57.60;;;;;;5050759;28;20628;-59
2022/11/27 07:45:41;;;;;;;2.20;2.00;;;17.80;57.30;;;;;;5050371;28;20175;-59
2022/11/27 07:48:07;;;;;;;2.35;2.15;;;17.90;57.20;;;;;;5049786;28;20199;-58
2022/11/27 07:50:32;;;;;;;2.42;2.05;;;17.90;57.10;;;;;;5053183;28;20174;-58
2022/11/27 07:52:58;;;;;;;2.40;2.20;;;17.80;57.00;;;;;;5054817;28;20715;-59
2022/11/27 07:55:23;;;;;;;2.22;1.77;;;17.80;57.10;;;;;;5054204;28;20183;-58
2022/11/27 07:57:49;;;;;;;2.38;2.00;;;17.80;57.20;;;;;;5054419;28;20517;-59
2022/11/27 08:00:15;;;;;;;2.22;1.95;;;17.70;57.40;;;;;;5054533;28;20661;-58
2022/11/27 08:02:40;;;;;;;2.00;1.80;;;17.60;57.60;;;;;;5054077;28;20241;-59
2022/11/27 08:05:06;;;;;;;1.85;1.65;;;17.50;57.70;;;;;;5054539;28;20254;-59
2022/11/27 08:07:31;;;;;;;2.55;1.77;;;17.40;57.80;;;;;;5054389;28;21880;-60
2022/11/27 08:09:57;;;;;;;2.05;1.92;;;17.30;57.90;;;;;;5053533;28;20179;-59
2022/11/27 08:12:23;;;;;;;2.20;2.00;;;17.30;58.00;;;;;;5054547;28;20195;-59
2022/11/27 08:14:49;;;;;;;2.10;1.92;;;17.20;58.20;;;;;;5052934;28;20183;-56
2022/11/27 08:17:14;;;;;;;2.40;2.20;;;17.20;58.30;;;;;;5053871;28;20214;-59
2022/11/27 08:19:40;;;;;;;2.92;2.30;;;17.10;58.40;;;;;;5053984;28;20270;-59
2022/11/27 08:22:08;;;;;;;2.47;2.13;;;17.00;58.40;;;;;;5052902;28;20254;-59
2022/11/27 08:24:36;;;;;;;2.30;2.03;;;17.00;58.60;;;;;;5052696;28;20190;-59
2022/11/27 08:27:01;;;;;;;2.53;2.30;;;16.90;58.60;;;;;;5053942;28;20237;-55
2022/11/27 08:29:27;;;;;;;2.08;1.88;;;16.90;58.80;;;;;;5053087;28;20187;-57
2022/11/27 08:31:52;;;;;;;2.20;2.00;;;16.90;58.80;;;;;;5053334;28;20513;-59
2022/11/27 08:34:18;;;;;;;2.10;1.90;;;16.80;58.70;;;;;;5050491;28;20711;-59
2022/11/27 08:36:43;;;;;;;3.33;2.10;;;16.80;58.90;;;;;;5052600;28;20179;-59
2022/11/27 08:39:09;;;;;;;3.03;2.17;;;16.70;58.70;;;;;;5053706;28;20191;-59
2022/11/27 08:41:34;;;;;;;2.97;1.95;;;16.70;58.90;;;;;;5053169;28;20171;-59
2022/11/27 08:44:00;;;;;;;2.38;2.17;;;16.70;59.00;;;;;;5052832;28;20637;-56
2022/11/27 08:46:26;;;;;;;2.25;2.05;;;16.70;59.00;;;;;;5053711;28;20176;-59
2022/11/27 08:48:51;;;;;;;2.70;2.00;;;16.80;58.90;;;;;;5052461;28;20215;-55
2022/11/27 08:51:17;;;;;;;2.25;2.03;;;16.80;58.80;;;;;;5052361;28;20553;-58
2022/11/27 08:53:44;;;;;;;2.40;2.05;;;16.80;58.80;;;;;;5052893;28;20175;-59
2022/11/27 08:56:17;;;;;;;3.22;2.20;;;16.80;58.80;;;;;;5053173;28;20199;-59
2022/11/27 08:58:43;;;;;;;2.30;1.95;;;16.80;58.80;;;;;;5052637;28;20171;-58
2022/11/27 09:01:11;;;;;;;1.98;1.77;;;16.80;58.80;;;;;;5051469;28;20179;-59
2022/11/27 09:03:37;;;;;;;2.17;1.98;;;16.70;58.80;;;;;;5053177;28;20228;-59
2022/11/27 09:06:06;;;;;;;2.45;2.25;;;16.70;58.90;;;;;;5052444;28;20183;-59
2022/11/27 09:08:31;;;;;;;2.53;2.20;;;16.90;58.90;;;;;;5051590;28;20221;-59
2022/11/27 09:10:59;;;;;;;2.25;2.05;;;16.80;58.80;;;;;;5051287;28;20171;-59
2022/11/27 09:13:25;;;;;;;2.47;1.92;;;16.80;58.80;;;;;;5052261;28;20260;-59
2022/11/27 09:15:51;;;;;;;3.13;2.65;;;16.90;58.80;;;;;;5052163;28;20209;-59
2022/11/27 09:18:16;;;;;;;2.55;2.35;;;16.80;58.70;;;;;;5051166;28;20234;-59
2022/11/27 09:20:42;;;;;;;3.25;2.45;;;16.80;58.70;;;;;;5052173;28;20172;-58
2022/11/27 09:23:07;;;;;;;2.45;2.22;;;16.80;58.80;;;;;;5052567;28;20183;-56
2022/11/27 09:25:33;;;;;;;2.60;2.30;;;16.70;58.80;;;;;;5051137;28;20167;-59
2022/11/27 09:27:59;;;;;;;2.10;1.90;;;16.70;58.80;;;;;;5051616;28;20311;-58
2022/11/27 09:30:24;;;;;;;2.22;1.98;;;16.80;58.90;;;;;;5052694;28;20190;-57
2022/11/27 09:32:51;;;;;;;2.13;1.95;;;16.80;58.90;;;;;;5051058;28;20183;-59
2022/11/27 09:35:16;;;;;;;2.20;2.00;;;16.80;58.80;;;;;;5051057;28;20554;-59
2022/11/27 09:37:42;;;;;;;2.30;2.10;;;16.90;58.80;;;;;;5049987;28;20183;-59
2022/11/27 09:40:13;;;;;;;2.65;2.40;;;16.80;58.70;;;;;;5051090;28;20234;-59
2022/11/27 09:42:41;;;;;;;2.58;2.35;;;16.80;58.80;;;;;;5050782;28;20181;-59
2022/11/27 09:45:10;;;;;;;2.83;2.63;;;16.80;58.80;;;;;;5034202;28;20582;-59
2022/11/27 09:47:42;;;;;;;2.40;2.15;;;16.80;58.80;;;;;;5049031;28;20221;-59
2022/11/27 09:50:16;;;;;;;2.28;2.05;;;16.70;58.80;;;;;;5050787;28;20198;-59
2022/11/27 09:53:03;;;;;;;2.40;1.98;;;16.70;58.90;;;;;;5050854;28;20191;-60
2022/11/27 09:55:46;;;;;;;2.38;2.17;;;16.70;59.00;;;;;;5044320;28;20192;-59
2022/11/27 09:58:41;;;;;;;2.17;1.90;;;16.80;59.00;;;;;;5049397;28;20269;-59
2022/11/27 10:01:18;;;;;;;2.63;2.42;;;16.80;58.80;;;;;;5048512;28;20188;-58
2022/11/27 10:03:44;;;;;;;3.08;2.30;;;16.80;58.80;;;;;;5048241;28;20171;-59
2022/11/27 10:06:19;;;;;;;3.05;2.33;;;16.80;58.80;;;;;;5050932;28;20621;-59
2022/11/27 10:09:02;;;;;;;3.25;2.33;;;16.80;58.90;;;;;;5047160;28;20207;-59
2022/11/27 10:12:06;;;;;;;2.22;2.05;;;16.80;58.90;;;;;;5035422;28;20195;-59
2022/11/27 10:14:53;;;;;;;1.70;1.60;;;16.70;58.90;;;;;;5047953;28;20689;-59
2022/11/27 10:17:24;;;;;;;2.20;2.00;;;16.70;59.00;;;;;;5049152;28;20218;-60
2022/11/27 10:20:17;;;;;;;2.33;1.90;;;16.70;59.10;;;;;;5048313;28;20186;-57
2022/11/27 10:23:07;;;;;;;2.53;2.33;;;16.80;59.00;;;;;;5048956;28;20274;-58
2022/11/27 10:25:48;;;;;;;2.45;2.25;;;16.80;59.00;;;;;;5049782;28;20179;-58
2022/11/27 10:28:35;;;;;;;2.28;2.05;;;16.80;59.00;;;;;;5053387;28;20225;-57
2022/11/27 10:31:13;;;;;;;2.95;2.40;;;16.70;58.90;;;;;;5051477;28;20179;-58
2022/11/27 10:33:49;;;;;;;2.30;2.00;;;16.70;58.90;;;;;;5048426;28;20778;-59
2022/11/27 10:36:17;;;;;;;2.40;2.20;;;16.70;59.00;;;;;;5047816;28;20638;-59
2022/11/27 10:38:43;;;;;;;3.05;2.42;;;16.70;59.00;;;;;;5045943;28;20229;-60
2022/11/27 10:41:20;;;;;;;2.45;2.25;;;16.70;59.10;;;;;;5048087;28;20167;-60
2022/11/27 10:43:46;;;;;;;2.53;2.17;;;16.70;59.10;;;;;;5047376;28;20625;-60
2022/11/27 10:46:14;;;;;;;1.88;1.73;;;16.70;59.10;;;;;;5050295;28;20177;-59
2022/11/27 10:48:39;;;;;;;2.75;2.17;;;16.80;59.00;;;;;;5052477;28;20256;-57
2022/11/27 10:51:15;;;;;;;2.60;2.40;;;16.90;58.90;;;;;;5052215;28;20167;-59
2022/11/27 10:53:41;;;;;;;2.53;2.33;;;16.90;58.80;;;;;;5035304;28;20189;-59
2022/11/27 10:56:22;;;;;;;2.55;1.95;;;16.90;58.80;;;;;;5052580;28;20179;-70
2022/11/27 10:58:59;;;;;;;2.38;2.17;;;16.90;58.80;;;;;;5051173;28;20226;-71
2022/11/27 11:01:26;;;;;;;2.70;2.50;;;16.90;58.90;;;;;;5048633;28;20175;-67
2022/11/27 11:04:04;;;;;;;3.22;2.40;;;16.80;58.90;;;;;;5049172;28;20206;-66
2022/11/27 11:06:30;;;;;;;6.82;2.65;;;16.80;59.10;;;;;;5049267;28;20218;-66
2022/11/27 11:09:03;;;;;;;4.40;2.63;;;16.80;59.30;;;;;;5041921;28;20238;-65
2022/11/27 11:11:28;;;;;;;5.18;2.53;;;16.70;59.30;;;;;;5049035;28;20193;-66
2022/11/27 11:13:54;;;;;;;4.65;2.88;;;16.70;59.60;;;;;;5048590;28;20179;-69
2022/11/27 11:16:24;;;;;;;7.97;3.08;;;16.60;59.60;;;;;;5049143;28;20258;-66
2022/11/27 11:18:51;;;;;;;6.68;3.00;;;16.70;59.80;;;;;;5048042;28;20609;-66
2022/11/27 11:21:25;;;;;;;5.88;2.97;;;16.60;60.00;;;;;;5048140;28;20187;-67
2022/11/27 11:23:56;;;;;;;4.63;2.45;;;16.60;60.30;;;;;;5048289;28;20191;-69
2022/11/27 11:26:22;;;;;;;9.80;3.05;;;16.70;60.70;;;;;;5047812;28;20182;-68
2022/11/27 11:28:49;;;;;;;8.40;3.28;;;16.70;60.80;;;;;;5048824;28;20207;-68
2022/11/27 11:31:26;;;;;;;5.25;2.67;;;16.70;61.00;;;;;;5048469;28;20183;-70
2022/11/27 11:33:56;;;;;;;5.15;2.88;;;16.80;61.10;;;;;;5045583;28;20557;-67
2022/11/27 11:36:21;;;;;;;5.35;2.55;;;16.80;61.10;;;;;;5048503;28;20236;-69
2022/11/27 11:38:47;;;;;;;4.28;2.80;;;16.90;61.10;;;;;;5046347;28;20175;-70
2022/11/27 11:41:16;;;;;;;3.72;2.47;;;16.90;61.10;;;;;;5048380;28;20202;-69
2022/11/27 11:43:51;;;;;;;5.57;2.78;;;16.90;61.00;;;;;;5048047;28;20223;-70
2022/11/27 11:46:19;;;;;;;5.10;2.63;;;16.90;61.10;;;;;;5048475;28;20175;-69
2022/11/27 11:48:52;;;;;;;5.43;2.92;;;16.90;61.20;;;;;;5047957;28;20217;-68
2022/11/27 11:51:23;;;;;;;4.43;2.65;;;16.90;61.20;;;;;;5048305;28;20175;-68
2022/11/27 11:54:04;;;;;;;3.83;2.30;;;16.90;61.30;;;;;;5044523;28;20176;-68
2022/11/27 11:56:38;;;;;;;3.78;2.33;;;16.90;61.30;;;;;;5045094;28;20228;-70
2022/11/27 11:59:29;;;;;;;5.32;2.20;;;17.00;61.40;;;;;;5046916;28;20175;-63
2022/11/27 12:02:13;;;;;;;7.20;2.75;;;17.00;61.20;;;;;;5047637;28;20203;-63
2022/11/27 12:05:12;;;;;;;6.65;2.97;;;16.90;61.20;;;;;;5046844;28;20688;-63
2022/11/27 12:07:51;;;;;;;4.13;2.75;;;16.90;60.90;;;;;;5046452;28;20629;-63
2022/11/27 12:10:20;;;;;;;7.25;3.38;;;16.80;60.80;;;;;;5046669;28;20182;-64
2022/11/27 12:13:03;;;;;;;6.15;2.88;;;16.80;60.80;;;;;;5047530;28;20179;-66
2022/11/27 12:15:33;;;;;;;5.78;3.60;;;16.80;60.90;;;;;;5049519;28;20233;-72
2022/11/27 12:18:05;;;;;;;10.38;3.25;;;16.80;61.30;;;;;;5049126;28;20558;-73
2022/11/27 12:20:42;;;;;;;10.40;2.88;;;16.90;61.30;;;;;;5048382;28;20585;-72
2022/11/27 12:23:16;;;;;;;9.70;2.72;;;16.80;61.00;;;;;;5047381;28;20181;-71
2022/11/27 12:26:00;;;;;;;8.57;2.83;;;16.90;61.00;;;;;;5047338;28;20478;-70
2022/11/27 12:28:31;;;;;;;4.50;2.88;;;16.90;60.90;;;;;;5047971;28;20286;-71
2022/11/27 12:31:42;;;;;;;12.65;3.03;;;16.90;60.90;;;;;;5046366;28;20202;-70
2022/11/27 12:34:35;;;;;;;8.35;2.80;;;16.80;60.80;;;;;;5048528;28;20183;-70
2022/11/27 12:37:13;;;;;;;6.18;3.05;;;16.80;60.80;;;;;;5034961;28;20175;-71
2022/11/27 12:39:45;;;;;;;5.57;2.97;;;16.80;60.80;;;;;;5054059;28;20214;-72
2022/11/27 12:42:24;;;;;;;6.05;2.85;;;16.80;60.90;;;;;;5054219;28;20171;-71
2022/11/27 12:45:00;;;;;;;5.85;2.85;;;16.90;60.90;;;;;;5047135;28;20602;-70
2022/11/27 12:47:34;;;;;;;6.68;2.40;;;16.80;60.70;;;;;;5051187;28;20202;-70
2022/11/27 12:50:15;;;;;;;8.10;3.22;;;16.80;60.60;;;;;;5050391;28;20168;-70
2022/11/27 12:52:43;;;;;;;4.78;2.58;;;16.80;60.60;;;;;;5049893;28;20261;-71
2022/11/27 12:55:20;;;;;;;8.77;3.08;;;16.80;60.70;;;;;;5050706;28;20651;-70